Clermont, Georgia
Current Conditions -  °F | °C
As of 9:53 PM on Sunday 21 Dec 2014 (Local Time) from KGVL Reporting Station
Overcast Overcast  
Wind Chill: 42°   Ceiling: 2400
Heat Index: 47°   Visibility: 10mi
Dew Point: 41°   Wind: 12mph
Humidity: 80%   Direction: 80°E
Pressure: 30.13"   Gusts: NA
Location:  34.48°N, 83.77°W
Report Text: KGVL 220253Z AUTO 08010KT 10SM OVC024 08/05 A3013 RMK AO2 SLP201 T00830050 56002
Loading
Personal Weather Stations






























Interactive Weather Map New forecast layout! Learn more

10-Day Weather Forecast

Advertisements
Track Severe Weather on mobile